createdAt,value
2018-06-20T00:00:37.475Z,99.90
2018-06-20T00:03:04.837Z,99.90
2018-06-20T00:05:32.024Z,99.90
2018-06-20T00:07:59.167Z,99.90
2018-06-20T00:10:26.415Z,99.90
2018-06-20T00:12:53.957Z,99.90
2018-06-20T00:15:21.159Z,99.90
2018-06-20T00:17:48.263Z,99.90
2018-06-20T00:20:16.085Z,99.90
2018-06-20T00:22:43.234Z,99.90
2018-06-20T00:25:10.318Z,99.90
2018-06-20T00:27:37.469Z,99.90
2018-06-20T00:30:04.977Z,99.90
2018-06-20T00:32:32.256Z,99.90
2018-06-20T00:35:00.029Z,99.90
2018-06-20T00:37:27.398Z,99.90
2018-06-20T00:39:55.241Z,99.90
2018-06-20T00:42:22.418Z,99.90
2018-06-20T00:44:50.282Z,99.90
2018-06-20T00:47:17.438Z,99.90
2018-06-20T00:49:44.593Z,99.90
2018-06-20T00:52:11.727Z,99.90
2018-06-20T00:54:38.886Z,99.90
2018-06-20T00:57:06.208Z,99.90
2018-06-20T00:59:33.466Z,99.90
2018-06-20T01:02:01.516Z,99.90
2018-06-20T01:04:28.654Z,99.90
2018-06-20T01:06:55.845Z,99.90
2018-06-20T01:09:23.067Z,99.90
2018-06-20T01:11:50.312Z,99.90
2018-06-20T01:14:17.456Z,99.90
2018-06-20T01:16:45.011Z,99.90
2018-06-20T01:19:12.277Z,99.90
2018-06-20T01:21:39.965Z,99.90
2018-06-20T01:24:07.194Z,99.90
2018-06-20T01:26:34.381Z,99.90
2018-06-20T01:31:28.974Z,99.90
2018-06-20T01:33:56.171Z,99.90
2018-06-20T01:36:23.467Z,99.90
2018-06-20T01:38:50.643Z,99.90
2018-06-20T01:41:18.338Z,99.90
2018-06-20T01:43:45.460Z,99.90
2018-06-20T01:46:12.644Z,99.90
2018-06-20T01:48:40.406Z,99.90
2018-06-20T01:51:07.632Z,99.90
2018-06-20T01:53:35.764Z,99.90
2018-06-20T01:56:03.221Z,99.90
2018-06-20T01:58:30.326Z,99.90
2018-06-20T02:00:57.420Z,99.90
2018-06-20T02:03:24.661Z,99.90
2018-06-20T02:05:51.712Z,99.90
2018-06-20T02:08:18.835Z,99.90
2018-06-20T02:10:45.937Z,99.90
2018-06-20T02:13:13.482Z,99.90
2018-06-20T02:15:41.333Z,99.90
2018-06-20T02:18:08.382Z,99.90
2018-06-20T02:20:35.464Z,99.90
2018-06-20T02:23:02.575Z,99.90
2018-06-20T02:25:30.631Z,99.90
2018-06-20T02:27:57.832Z,99.90
2018-06-20T02:30:26.000Z,99.90
2018-06-20T02:49:40.030Z,99.90
2018-06-20T02:52:07.619Z,99.90
2018-06-20T02:54:35.132Z,99.90
2018-06-20T02:57:02.548Z,99.90
2018-06-20T02:59:29.943Z,99.90
2018-06-20T03:01:57.163Z,99.90
2018-06-20T03:04:24.356Z,99.90
2018-06-20T03:06:51.528Z,99.90
2018-06-20T03:09:24.391Z,99.90
2018-06-20T03:11:51.564Z,99.90
2018-06-20T03:14:19.001Z,99.90
2018-06-20T03:16:46.788Z,99.90
2018-06-20T03:19:14.167Z,99.90
2018-06-20T03:21:41.302Z,99.90
2018-06-20T03:26:35.670Z,99.90
2018-06-20T03:29:02.926Z,99.90
2018-06-20T03:31:30.071Z,99.90
2018-06-20T03:33:57.416Z,99.90
2018-06-20T03:36:25.156Z,99.90
2018-06-20T03:38:52.386Z,99.90
2018-06-20T03:41:19.562Z,99.90
2018-06-20T03:43:46.695Z,99.90
2018-06-20T03:46:13.813Z,99.90
2018-06-20T03:48:40.898Z,99.90
2018-06-20T03:53:35.265Z,99.90
2018-06-20T03:56:02.599Z,99.90
2018-06-20T03:58:30.316Z,99.90
2018-06-20T04:00:57.509Z,99.90
2018-06-20T04:03:24.735Z,99.90
2018-06-20T04:05:51.814Z,99.90
2018-06-20T04:08:19.075Z,99.90
2018-06-20T04:10:46.220Z,99.90
2018-06-20T04:13:13.369Z,99.90
2018-06-20T04:15:40.609Z,99.90
2018-06-20T04:18:07.707Z,99.90
2018-06-20T04:20:35.597Z,99.90
2018-06-20T04:23:02.938Z,99.90
2018-06-20T04:25:30.100Z,99.90
2018-06-20T04:27:57.397Z,99.90
2018-06-20T04:30:24.615Z,99.90
2018-06-20T04:32:52.626Z,99.90
2018-06-20T04:35:20.536Z,99.90
2018-06-20T04:37:49.199Z,99.90
2018-06-20T04:40:16.374Z,99.90
2018-06-20T04:42:43.538Z,99.90
2018-06-20T04:45:10.767Z,99.90
2018-06-20T04:47:37.890Z,99.90
2018-06-20T04:50:05.094Z,99.90
2018-06-20T04:52:32.232Z,99.90
2018-06-20T04:55:00.836Z,99.90
2018-06-20T04:57:28.294Z,99.90
2018-06-20T04:59:56.383Z,99.90
2018-06-20T05:02:23.590Z,99.90
2018-06-20T05:04:50.858Z,99.90
2018-06-20T05:07:17.997Z,99.90
2018-06-20T05:09:45.144Z,99.90
2018-06-20T05:12:13.305Z,99.90
2018-06-20T05:14:41.809Z,99.90
2018-06-20T05:17:09.273Z,99.90
2018-06-20T05:19:37.084Z,99.90
2018-06-20T05:22:04.321Z,99.90
2018-06-20T05:24:31.974Z,99.90
2018-06-20T05:26:59.912Z,99.90
2018-06-20T05:29:27.254Z,99.90
2018-06-20T05:31:54.765Z,99.90
2018-06-20T05:34:21.969Z,99.90
2018-06-20T05:36:49.345Z,99.90
2018-06-20T05:39:17.546Z,99.90
2018-06-20T05:41:45.267Z,99.90
2018-06-20T05:44:12.400Z,99.90
2018-06-20T05:46:39.735Z,99.90
2018-06-20T05:49:07.017Z,99.90
2018-06-20T05:51:34.727Z,99.90
2018-06-20T05:54:02.081Z,99.90
2018-06-20T05:56:29.343Z,99.90
2018-06-20T05:58:57.327Z,99.90
2018-06-20T06:01:24.446Z,99.90
2018-06-20T06:03:51.575Z,99.90
2018-06-20T06:06:19.284Z,99.90
2018-06-20T06:08:46.428Z,99.90
2018-06-20T06:11:14.177Z,99.90
2018-06-20T06:13:41.808Z,99.90
2018-06-20T06:16:08.963Z,99.90
2018-06-20T06:18:37.074Z,99.90
2018-06-20T06:21:05.725Z,99.90
2018-06-20T06:23:33.588Z,99.90
2018-06-20T06:26:00.782Z,99.90
2018-06-20T06:28:28.311Z,99.90
2018-06-20T06:30:58.589Z,99.90
2018-06-20T06:33:25.704Z,99.90
2018-06-20T06:35:53.163Z,99.90
2018-06-20T06:38:20.955Z,99.90
2018-06-20T06:40:48.232Z,99.90
2018-06-20T06:45:42.621Z,99.90
2018-06-20T06:48:10.202Z,99.90
2018-06-20T06:50:38.624Z,99.90
2018-06-20T06:53:06.389Z,99.90
2018-06-20T06:55:33.703Z,99.90
2018-06-20T06:58:01.008Z,99.90
2018-06-20T07:00:28.235Z,99.90
2018-06-20T07:02:55.470Z,99.90
2018-06-20T07:05:22.596Z,99.90
2018-06-20T07:07:50.371Z,99.90
2018-06-20T07:10:17.500Z,99.90
2018-06-20T07:12:44.620Z,99.90
2018-06-20T07:15:12.564Z,99.90
2018-06-20T07:17:39.864Z,99.90
2018-06-20T07:20:07.823Z,99.90
2018-06-20T07:22:35.604Z,99.90
2018-06-20T07:25:02.801Z,99.90
2018-06-20T07:27:29.951Z,99.90
2018-06-20T07:29:57.110Z,99.90
2018-06-20T07:32:24.123Z,99.90
2018-06-20T07:34:51.488Z,99.90
2018-06-20T07:37:18.964Z,99.90
2018-06-20T07:39:46.046Z,99.90
2018-06-20T07:42:13.201Z,99.90
2018-06-20T07:44:40.901Z,99.90
2018-06-20T07:47:08.052Z,99.90
2018-06-20T07:49:35.180Z,99.90
2018-06-20T07:52:02.369Z,99.90
2018-06-20T07:54:30.555Z,99.90
2018-06-20T07:56:58.095Z,99.90
2018-06-20T07:59:29.845Z,99.90
2018-06-20T08:02:14.249Z,99.90
2018-06-20T08:04:46.972Z,99.90
2018-06-20T08:07:20.429Z,99.90
2018-06-20T08:09:54.122Z,99.90
2018-06-20T08:12:27.082Z,99.90
2018-06-20T08:14:59.805Z,99.90
2018-06-20T08:17:32.668Z,99.90
2018-06-20T08:20:00.665Z,99.90
2018-06-20T08:25:01.518Z,99.90
2018-06-20T08:27:29.218Z,99.90
2018-06-20T08:29:56.269Z,99.90
2018-06-20T08:32:23.377Z,99.90
2018-06-20T08:34:51.374Z,99.90
2018-06-20T08:37:18.527Z,99.90
2018-06-20T08:39:45.743Z,99.90
2018-06-20T08:42:13.382Z,99.90
2018-06-20T08:44:40.582Z,99.90
2018-06-20T08:47:08.676Z,99.90
2018-06-20T08:49:35.816Z,99.90
2018-06-20T08:52:03.601Z,99.90
2018-06-20T08:54:30.706Z,99.90
2018-06-20T08:56:57.964Z,99.90
2018-06-20T08:59:25.056Z,99.90
2018-06-20T09:01:52.148Z,99.90
2018-06-20T09:04:25.106Z,99.90
2018-06-20T09:06:57.784Z,99.90
2018-06-20T09:09:30.427Z,99.90
2018-06-20T09:12:03.124Z,99.90
2018-06-20T09:14:34.789Z,99.90
2018-06-20T09:17:08.071Z,99.60
2018-06-20T09:19:40.826Z,99.80
2018-06-20T09:22:08.147Z,99.90
2018-06-20T09:24:35.192Z,99.80
2018-06-20T09:27:02.919Z,99.90
2018-06-20T09:29:29.982Z,99.10
2018-06-20T09:31:57.125Z,98.90
2018-06-20T09:34:24.465Z,98.80
2018-06-20T09:36:51.569Z,98.80
2018-06-20T09:39:18.668Z,98.70
2018-06-20T09:41:45.763Z,98.50
2018-06-20T09:44:12.809Z,98.70
2018-06-20T09:46:39.845Z,98.90
2018-06-20T09:49:07.006Z,98.70
2018-06-20T09:51:35.060Z,98.70
2018-06-20T09:54:02.190Z,98.60
2018-06-20T09:56:29.471Z,98.30
2018-06-20T09:59:01.121Z,98.00
2018-06-20T10:01:33.929Z,98.20
2018-06-20T10:04:06.804Z,97.40
2018-06-20T10:08:44.484Z,97.40
2018-06-20T10:11:17.603Z,97.70
2018-06-20T10:13:46.152Z,97.70
2018-06-20T10:16:13.384Z,97.30
2018-06-20T10:18:40.484Z,97.30
2018-06-20T10:21:07.746Z,97.20
2018-06-20T10:23:34.940Z,97.20
2018-06-20T10:26:02.039Z,97.10
2018-06-20T10:28:29.602Z,97.30
2018-06-20T10:30:56.984Z,96.70
2018-06-20T10:33:24.374Z,97.10
2018-06-20T10:35:51.970Z,97.00
2018-06-20T10:38:19.071Z,96.80
2018-06-20T10:40:46.241Z,97.00
2018-06-20T10:43:13.790Z,96.70
2018-06-20T10:45:47.343Z,96.90
2018-06-20T10:48:16.189Z,96.60
2018-06-20T10:50:44.487Z,97.00
2018-06-20T10:53:11.699Z,96.40
2018-06-20T10:55:39.527Z,95.70
2018-06-20T10:58:12.553Z,95.10
2018-06-20T11:00:45.877Z,94.80
2018-06-20T11:03:18.636Z,95.00
2018-06-20T11:05:51.556Z,94.80
2018-06-20T11:08:24.331Z,94.90
2018-06-20T11:10:58.542Z,94.90
2018-06-20T11:13:25.915Z,94.40
2018-06-20T11:15:53.076Z,94.00
2018-06-20T11:18:21.098Z,93.70
2018-06-20T11:20:54.837Z,93.50
2018-06-20T11:23:24.181Z,92.90
2018-06-20T11:25:51.498Z,92.70
2018-06-20T11:28:18.804Z,92.50
2018-06-20T11:30:47.068Z,92.00
2018-06-20T11:33:20.364Z,91.70
2018-06-20T11:35:51.273Z,91.60
2018-06-20T11:38:18.519Z,91.40
2018-06-20T11:40:45.586Z,92.10
2018-06-20T11:43:12.765Z,92.00
2018-06-20T11:45:46.516Z,91.80
2018-06-20T11:48:13.642Z,91.90
2018-06-20T11:50:40.795Z,92.40
2018-06-20T11:53:09.020Z,92.40
2018-06-20T11:55:37.242Z,91.80
2018-06-20T11:58:11.055Z,91.00
2018-06-20T12:00:43.758Z,90.40
2018-06-20T12:03:16.640Z,90.70
2018-06-20T12:05:49.431Z,90.60
2018-06-20T12:08:22.179Z,90.50
2018-06-20T12:10:54.932Z,89.70
2018-06-20T12:13:28.119Z,88.30
2018-06-20T12:16:00.936Z,88.80
2018-06-20T12:18:33.684Z,86.90
2018-06-20T12:23:39.544Z,86.60
2018-06-20T12:26:13.006Z,85.60
2018-06-20T12:28:46.341Z,85.20
2018-06-20T12:31:19.104Z,85.20
2018-06-20T12:33:51.894Z,85.50
2018-06-20T12:36:24.778Z,85.00
2018-06-20T12:38:58.720Z,84.00
2018-06-20T12:41:31.393Z,83.70
2018-06-20T12:44:04.300Z,81.80
2018-06-20T12:46:38.033Z,81.10
2018-06-20T12:49:05.618Z,79.80
2018-06-20T12:51:32.679Z,79.40
2018-06-20T12:53:59.787Z,79.20
2018-06-20T12:56:26.971Z,77.20
2018-06-20T13:01:21.216Z,77.00
2018-06-20T13:03:49.174Z,75.80
2018-06-20T13:06:17.261Z,76.20
2018-06-20T13:08:44.489Z,74.70
2018-06-20T13:11:12.125Z,74.80
2018-06-20T13:13:39.509Z,74.60
2018-06-20T13:16:06.781Z,75.20
2018-06-20T13:18:34.080Z,75.20
2018-06-20T13:21:01.725Z,75.10
2018-06-20T13:23:28.911Z,73.90
2018-06-20T13:25:56.004Z,72.50
2018-06-20T13:28:23.776Z,70.20
2018-06-20T13:30:56.828Z,68.30
2018-06-20T13:33:29.573Z,67.20
2018-06-20T13:36:02.278Z,67.30
2018-06-20T13:55:15.506Z,67.10
2018-06-20T13:57:43.483Z,67.90
2018-06-20T14:00:10.623Z,67.40
2018-06-20T14:02:37.748Z,69.60
2018-06-20T14:05:06.034Z,69.40
2018-06-20T14:07:33.128Z,68.90
2018-06-20T14:10:00.223Z,68.40
2018-06-20T14:12:28.913Z,68.00
2018-06-20T14:14:56.468Z,68.60
2018-06-20T14:17:23.991Z,69.20
2018-06-20T14:19:56.945Z,66.90
2018-06-20T14:22:24.134Z,66.30
2018-06-20T14:24:52.461Z,66.60
2018-06-20T14:27:20.104Z,65.80
2018-06-20T14:29:47.665Z,66.80
2018-06-20T14:32:20.653Z,65.50
2018-06-20T14:51:33.615Z,60.30
2018-06-20T14:56:28.107Z,58.50
2018-06-20T14:58:55.339Z,59.00
2018-06-20T15:01:22.575Z,56.80
2018-06-20T15:03:51.780Z,57.20
2018-06-20T15:08:46.535Z,57.50
2018-06-20T15:11:14.434Z,57.10
2018-06-20T15:13:41.547Z,55.60
2018-06-20T15:16:14.524Z,54.80
2018-06-20T15:18:41.737Z,53.30
2018-06-20T15:21:08.798Z,51.00
2018-06-20T15:23:36.609Z,50.90
2018-06-20T15:26:09.843Z,49.70
2018-06-20T15:28:44.632Z,48.90
2018-06-20T15:31:18.046Z,48.30
2018-06-20T15:33:52.686Z,48.40
2018-06-20T15:36:26.560Z,49.00
2018-06-20T15:38:53.711Z,48.60
2018-06-20T15:41:21.749Z,49.70
2018-06-20T15:43:48.914Z,50.10
2018-06-20T15:46:16.798Z,50.50
2018-06-20T15:48:44.945Z,49.10
2018-06-20T15:51:12.672Z,48.90
2018-06-20T15:53:39.790Z,48.10
2018-06-20T15:56:07.038Z,48.50
2018-06-20T15:58:34.309Z,48.30
2018-06-20T16:01:01.536Z,47.30
2018-06-20T16:03:29.120Z,47.40
2018-06-20T16:05:56.821Z,47.30
2018-06-20T16:08:24.849Z,48.40
2018-06-20T16:10:52.057Z,49.50
2018-06-20T16:13:20.121Z,50.20
2018-06-20T16:15:48.314Z,50.10
2018-06-20T16:18:17.359Z,49.10
2018-06-20T16:20:50.316Z,48.50
2018-06-20T16:23:23.184Z,49.00
2018-06-20T16:25:56.246Z,49.30
2018-06-20T16:28:29.905Z,48.70
2018-06-20T16:30:57.244Z,47.50
2018-06-20T16:33:24.728Z,46.60
2018-06-20T16:35:51.890Z,47.10
2018-06-20T16:38:19.223Z,46.40
2018-06-20T16:40:46.351Z,46.40
2018-06-20T16:43:13.593Z,44.80
2018-06-20T16:45:40.850Z,43.10
2018-06-20T16:48:08.206Z,43.50
2018-06-20T16:50:36.913Z,44.10
2018-06-20T16:53:04.150Z,44.60
2018-06-20T16:55:31.378Z,45.80
2018-06-20T16:57:58.513Z,45.40
2018-06-20T17:00:25.568Z,45.20
2018-06-20T17:02:53.590Z,45.00
2018-06-20T17:05:20.711Z,44.10
2018-06-20T17:07:47.947Z,43.80
2018-06-20T17:10:15.240Z,44.50
2018-06-20T17:12:52.099Z,44.10
2018-06-20T17:15:25.464Z,44.20
2018-06-20T17:20:31.875Z,45.60
2018-06-20T17:23:05.485Z,45.40
2018-06-20T17:25:33.350Z,45.40
2018-06-20T17:28:02.898Z,45.60
2018-06-20T17:30:30.991Z,46.20
2018-06-20T17:32:58.279Z,47.00
2018-06-20T17:35:25.425Z,47.40
2018-06-20T17:37:52.719Z,48.00
2018-06-20T17:40:19.883Z,47.30
2018-06-20T17:42:47.253Z,47.00
2018-06-20T17:45:15.518Z,47.40
2018-06-20T17:47:42.689Z,47.50
2018-06-20T17:50:09.841Z,48.40
2018-06-20T17:52:38.216Z,49.70
2018-06-20T17:55:05.471Z,48.90
2018-06-20T17:57:32.772Z,49.30
2018-06-20T17:59:59.928Z,48.90
2018-06-20T18:02:27.188Z,49.50
2018-06-20T18:04:59.944Z,49.40
2018-06-20T18:07:34.434Z,49.20
2018-06-20T18:10:08.390Z,49.00
2018-06-20T18:12:41.299Z,49.00
2018-06-20T18:15:14.429Z,48.90
2018-06-20T18:17:42.103Z,50.10
2018-06-20T18:20:10.602Z,49.90
2018-06-20T18:22:38.420Z,50.10
2018-06-20T18:25:06.460Z,49.50
2018-06-20T18:27:34.143Z,49.30
2018-06-20T18:30:02.184Z,49.10
2018-06-20T18:32:29.985Z,50.70
2018-06-20T18:34:58.584Z,51.30
2018-06-20T18:37:26.397Z,51.70
2018-06-20T18:39:59.360Z,52.10
2018-06-20T18:42:26.657Z,52.30
2018-06-20T18:47:27.152Z,53.30
2018-06-20T18:49:55.892Z,52.30
2018-06-20T18:52:23.451Z,52.30
2018-06-20T18:57:29.998Z,52.50
2018-06-20T19:00:03.359Z,53.00
2018-06-20T19:02:37.216Z,53.20
2018-06-20T19:05:11.853Z,53.80
2018-06-20T19:07:45.993Z,55.00
2018-06-20T19:10:14.245Z,55.90
2018-06-20T19:12:42.593Z,56.50
2018-06-20T19:15:11.333Z,57.10
2018-06-20T19:20:10.229Z,58.20
2018-06-20T19:22:37.927Z,58.80
2018-06-20T19:25:07.272Z,59.20
2018-06-20T19:27:34.862Z,59.60
2018-06-20T19:30:03.429Z,59.70
2018-06-20T19:32:32.154Z,59.90
2018-06-20T19:35:01.982Z,60.20
2018-06-20T19:37:30.514Z,60.50
2018-06-20T19:39:59.787Z,60.60
2018-06-20T19:42:28.682Z,61.00
2018-06-20T19:44:56.702Z,61.00
2018-06-20T19:47:25.731Z,61.20
2018-06-20T19:49:55.001Z,63.00
2018-06-20T19:52:23.134Z,63.70
2018-06-20T19:54:50.821Z,64.60
2018-06-20T19:57:18.812Z,65.20
2018-06-20T19:59:48.905Z,66.00
2018-06-20T20:02:16.328Z,66.50
2018-06-20T20:07:19.900Z,67.80
2018-06-20T20:09:47.232Z,68.20
2018-06-20T20:12:17.932Z,68.70
2018-06-20T20:14:46.730Z,69.40
2018-06-20T20:17:16.403Z,70.20
2018-06-20T20:19:43.996Z,70.70
2018-06-20T20:22:11.984Z,71.30
2018-06-20T20:24:39.983Z,71.60
2018-06-20T20:27:07.316Z,72.30
2018-06-20T20:29:35.099Z,72.60
2018-06-20T20:32:03.172Z,73.30
2018-06-20T20:34:32.158Z,74.00
2018-06-20T20:37:02.221Z,74.60
2018-06-20T20:39:30.263Z,75.20
2018-06-20T20:41:59.041Z,76.10
2018-06-20T20:44:26.373Z,76.60
2018-06-20T20:47:02.988Z,77.40
2018-06-20T20:49:30.601Z,78.00
2018-06-20T20:51:59.044Z,79.40
2018-06-20T20:54:26.390Z,80.20
2018-06-20T20:56:56.729Z,81.10
2018-06-20T20:59:26.722Z,82.20
2018-06-20T21:01:54.315Z,82.00
2018-06-20T21:04:22.826Z,82.40
2018-06-20T21:06:51.538Z,83.10
2018-06-20T21:09:18.769Z,84.00
2018-06-20T21:11:47.678Z,84.70
2018-06-20T21:14:16.188Z,85.60
2018-06-20T21:16:44.155Z,86.30
2018-06-20T21:19:11.927Z,86.20
2018-06-20T21:21:41.070Z,87.10
2018-06-20T21:24:09.005Z,87.50
2018-06-20T21:26:37.497Z,88.20
2018-06-20T21:29:06.868Z,89.20
2018-06-20T21:31:39.108Z,90.10
2018-06-20T21:34:07.435Z,90.40
2018-06-20T21:36:35.560Z,90.70
2018-06-20T21:39:02.896Z,91.00
2018-06-20T21:41:30.153Z,91.20
2018-06-20T21:43:58.236Z,91.50
2018-06-20T21:46:25.885Z,92.00
2018-06-20T21:48:54.116Z,92.40
2018-06-20T21:51:21.269Z,92.70
2018-06-20T21:53:48.461Z,93.10
2018-06-20T21:56:15.760Z,93.60
2018-06-20T21:58:43.599Z,94.30
2018-06-20T22:01:10.738Z,94.30
2018-06-20T22:20:24.342Z,96.50
2018-06-20T22:22:52.076Z,96.80
2018-06-20T22:27:46.297Z,97.80
2018-06-20T22:30:13.909Z,98.30
2018-06-20T22:32:40.994Z,98.80
2018-06-20T22:49:17.215Z,99.90
2018-06-20T22:51:44.295Z,99.90
2018-06-20T22:54:11.467Z,99.90
2018-06-20T22:56:39.305Z,99.90
2018-06-20T22:59:06.394Z,99.90
2018-06-20T23:01:33.500Z,99.90
2018-06-20T23:04:00.629Z,99.90
2018-06-20T23:06:27.735Z,99.90
2018-06-20T23:08:54.829Z,99.90
2018-06-20T23:13:49.662Z,99.90
2018-06-20T23:16:16.692Z,99.90
2018-06-20T23:18:43.796Z,99.90
2018-06-20T23:21:10.966Z,99.90
2018-06-20T23:23:38.016Z,99.90
2018-06-20T23:26:05.094Z,99.90
2018-06-20T23:28:32.253Z,99.90
2018-06-20T23:30:59.391Z,99.90
2018-06-20T23:33:26.451Z,99.90
2018-06-20T23:35:53.546Z,99.90
2018-06-20T23:38:20.638Z,99.90
2018-06-20T23:40:47.764Z,99.90
2018-06-20T23:43:15.532Z,99.90
2018-06-20T23:45:42.615Z,99.90
2018-06-20T23:48:09.758Z,99.90
2018-06-20T23:50:36.818Z,99.90
2018-06-20T23:53:04.711Z,99.90
2018-06-20T23:55:31.873Z,99.90
2018-06-20T23:57:59.655Z,99.90
